Time;durP1;ratioP1;P1;durP2;ratioP2;P2;SDS_P1;SDS_P2;PMS_P1;PMS_P2;Temp;Humidity;BMP_temperature;BMP_pressure;BME280_temperature;BME280_humidity;BME280_pressure;Samples;Min_cycle;Max_cycle;Signal;HPM_P1;HPM_P2
2023/10/17 00:05:23;;;;;;;;;;;17.60;61.60;;;;;;10204871;28;93602;-66
2023/10/17 00:10:30;;;;;;;;;;;17.60;61.70;;;;;;10199974;28;93867;-66
2023/10/17 00:15:35;;;;;;;;;;;17.50;61.50;;;;;;10203970;28;94645;-67
2023/10/17 00:20:37;;;;;;;;;;;17.60;61.80;;;;;;10187451;28;94581;-68
2023/10/17 00:25:42;;;;;;;;;;;17.60;61.60;;;;;;10204584;28;92936;-67
2023/10/17 00:30:44;;;;;;;;;;;17.50;61.50;;;;;;10184975;28;93438;-67
2023/10/17 00:35:46;;;;;;;;;;;17.60;61.50;;;;;;10191116;28;94479;-67
2023/10/17 00:40:51;;;;;;;;;;;17.60;61.50;;;;;;10192330;28;96409;-66
2023/10/17 00:45:53;;;;;;;;;;;17.50;61.30;;;;;;10193378;28;94638;-67
2023/10/17 00:51:07;;;;;;;;;;;17.60;61.40;;;;;;10203894;28;94396;-66
2023/10/17 00:56:09;;;;;;;;;;;17.60;61.30;;;;;;10184219;28;93656;-66
2023/10/17 01:11:38;;;;;;;;;;;17.60;61.20;;;;;;10198447;28;93982;-51
2023/10/17 01:16:41;;;;;;;;;;;17.50;61.10;;;;;;10199808;28;93600;-52
2023/10/17 01:21:43;;;;;;;;;;;17.50;61.10;;;;;;10200281;28;92943;-50
2023/10/17 01:26:45;;;;;;;;;;;17.50;61.10;;;;;;10202216;28;94602;-49
2023/10/17 01:31:50;;;;;;;;;;;17.50;61.00;;;;;;10197341;28;95886;-51
2023/10/17 01:36:53;;;;;;;;;;;17.50;61.00;;;;;;10199312;28;95477;-53
2023/10/17 01:41:55;;;;;;;;;;;17.50;61.00;;;;;;10195662;28;93261;-48
2023/10/17 01:46:56;;;;;;;;;;;17.50;61.00;;;;;;10205743;28;94643;-52
2023/10/17 01:51:58;;;;;;;;;;;17.50;60.90;;;;;;10186488;28;94805;-51
2023/10/17 01:57:06;;;;;;;;;;;17.50;61.00;;;;;;10209158;28;94457;-49
2023/10/17 02:02:08;;;;;;;;;;;17.50;60.90;;;;;;10209539;28;93445;-48
2023/10/17 02:07:10;;;;;;;;;;;17.50;60.90;;;;;;10209215;28;93698;-52
2023/10/17 02:12:12;;;;;;;;;;;17.50;60.90;;;;;;10202562;28;94343;-52
2023/10/17 02:17:15;;;;;;;;;;;17.40;60.80;;;;;;10207195;28;93797;-52
2023/10/17 02:22:17;;;;;;;;;;;17.50;60.90;;;;;;10200224;28;96922;-53
2023/10/17 02:27:21;;;;;;;;;;;17.40;60.80;;;;;;10201869;28;95132;-51
2023/10/17 02:32:23;;;;;;;;;;;17.40;60.80;;;;;;10211861;28;94810;-50
2023/10/17 02:37:29;;;;;;;;;;;17.40;60.80;;;;;;10214617;28;94475;-52
2023/10/17 02:42:31;;;;;;;;;;;17.40;60.80;;;;;;10204979;28;93102;-51
2023/10/17 02:47:34;;;;;;;;;;;17.40;60.80;;;;;;10203453;28;96831;-52
2023/10/17 02:52:36;;;;;;;;;;;17.40;60.80;;;;;;10198647;28;93707;-51
2023/10/17 02:57:41;;;;;;;;;;;17.40;60.70;;;;;;10201851;28;93816;-52
2023/10/17 03:02:48;;;;;;;;;;;17.40;60.70;;;;;;10200376;28;94586;-50
2023/10/17 03:07:50;;;;;;;;;;;17.40;60.70;;;;;;10205425;28;94714;-51
2023/10/17 03:12:55;;;;;;;;;;;17.40;60.70;;;;;;10174771;28;97253;-49
2023/10/17 03:18:00;;;;;;;;;;;17.40;60.70;;;;;;10202757;28;94479;-51
2023/10/17 03:23:03;;;;;;;;;;;17.40;60.70;;;;;;10201545;28;94760;-49
2023/10/17 03:28:08;;;;;;;;;;;17.30;60.70;;;;;;10201914;28;95375;-47
2023/10/17 03:33:14;;;;;;;;;;;17.30;60.60;;;;;;10206234;28;94992;-47
2023/10/17 03:38:17;;;;;;;;;;;17.30;60.60;;;;;;10205252;28;93448;-50
2023/10/17 03:43:21;;;;;;;;;;;17.30;60.60;;;;;;10205319;28;94383;-51
2023/10/17 03:48:24;;;;;;;;;;;17.30;60.50;;;;;;10204059;28;93623;-52
2023/10/17 03:53:29;;;;;;;;;;;17.30;60.60;;;;;;10203667;28;95743;-49
2023/10/17 04:03:34;;;;;;;;;;;17.30;60.60;;;;;;10200780;28;97011;-48
2023/10/17 04:08:49;;;;;;;;;;;17.30;60.60;;;;;;10201643;28;94853;-52
2023/10/17 04:13:55;;;;;;;;;;;17.30;60.60;;;;;;10204456;28;93668;-49
2023/10/17 04:19:16;;;;;;;;;;;17.20;59.60;;;;;;10203091;28;93449;-48
2023/10/17 04:24:33;;;;;;;;;;;17.30;60.60;;;;;;10202262;28;94550;-51
2023/10/17 04:29:37;;;;;;;;;;;17.30;60.40;;;;;;10197880;28;94469;-51
2023/10/17 04:34:46;;;;;;;;;;;17.30;61.40;;;;;;10202528;28;94806;-50
2023/10/17 04:39:48;;;;;;;;;;;17.30;60.40;;;;;;10200987;28;93962;-52
2023/10/17 04:44:50;;;;;;;;;;;17.30;60.40;;;;;;10183770;28;93834;-52
2023/10/17 04:49:55;;;;;;;;;;;17.30;60.10;;;;;;10201263;28;95042;-53
2023/10/17 05:05:45;;;;;;;;;;;17.30;59.90;;;;;;10199466;28;93990;-47
2023/10/17 06:20:17;;;;;;;;;;;17.20;58.80;;;;;;10199041;28;95144;-54
2023/10/17 06:30:45;;;;;;;;;;;17.20;58.70;;;;;;10194559;28;94854;-53
2023/10/17 06:35:55;;;;;;;;;;;17.10;58.50;;;;;;10207586;28;94458;-54
2023/10/17 06:41:11;;;;;;;;;;;17.10;58.60;;;;;;10186633;28;96743;-57
2023/10/17 06:46:14;;;;;;;;;;;17.10;58.50;;;;;;10206550;28;93313;-54
2023/10/17 06:56:25;;;;;;;;;;;17.10;58.80;;;;;;10206454;28;93668;-53
2023/10/17 07:01:28;;;;;;;;;;;17.10;58.70;;;;;;10205569;28;94468;-51
2023/10/17 07:06:30;;;;;;;;;;;17.10;58.30;;;;;;10196697;28;94669;-52
2023/10/17 07:11:35;;;;;;;;;;;17.10;59.60;;;;;;10204040;28;93454;-53
2023/10/17 07:27:03;;;;;;;;;;;17.00;61.10;;;;;;10204667;28;93413;-48
2023/10/17 07:32:16;;;;;;;;;;;17.00;62.20;;;;;;10202957;28;96590;-52
2023/10/17 07:42:30;;;;;;;;;;;17.00;62.30;;;;;;10204807;28;94430;-49
2023/10/17 07:47:35;;;;;;;;;;;17.00;62.30;;;;;;10205234;28;94623;-48
2023/10/17 07:52:38;;;;;;;;;;;16.90;62.20;;;;;;10186809;28;94403;-47
2023/10/17 07:57:40;;;;;;;;;;;16.90;62.20;;;;;;10203942;28;93360;-48
2023/10/17 08:02:43;;;;;;;;;;;17.00;62.10;;;;;;10176553;28;94260;-48
2023/10/17 08:07:49;;;;;;;;;;;17.00;62.10;;;;;;10205270;28;93716;-52
2023/10/17 08:12:51;;;;;;;;;;;17.00;62.00;;;;;;10164901;28;94860;-49
2023/10/17 08:17:53;;;;;;;;;;;17.00;61.90;;;;;;10203490;28;93465;-50
2023/10/17 08:22:55;;;;;;;;;;;17.00;61.90;;;;;;10200977;28;95802;-48
2023/10/17 08:27:58;;;;;;;;;;;17.00;61.90;;;;;;10186777;28;94595;-48
2023/10/17 08:38:03;;;;;;;;;;;17.00;61.60;;;;;;10203207;28;94803;-52
2023/10/17 08:43:06;;;;;;;;;;;17.10;61.60;;;;;;10203439;28;94419;-52
2023/10/17 08:48:11;;;;;;;;;;;17.10;61.50;;;;;;10201995;28;94276;-51
2023/10/17 08:53:13;;;;;;;;;;;17.10;61.20;;;;;;10200934;28;93410;-51
2023/10/17 08:58:17;;;;;;;;;;;17.10;61.10;;;;;;10203330;28;93336;-49
2023/10/17 09:03:20;;;;;;;;;;;17.20;61.10;;;;;;10203817;28;94815;-50
2023/10/17 09:08:41;;;;;;;;;;;17.20;60.80;;;;;;10204282;28;95693;-47
2023/10/17 09:18:54;;;;;;;;;;;17.30;60.60;;;;;;10201374;28;94473;-50
2023/10/17 09:23:57;;;;;;;;;;;17.40;60.40;;;;;;10200003;28;93214;-53
2023/10/17 09:29:01;;;;;;;;;;;17.50;60.30;;;;;;10206770;28;94371;-48
2023/10/17 09:34:04;;;;;;;;;;;17.50;60.20;;;;;;10184194;28;94691;-48
2023/10/17 09:39:14;;;;;;;;;;;17.50;60.00;;;;;;10201457;28;92992;-50
2023/10/17 09:44:36;;;;;;;;;;;17.60;60.00;;;;;;10198793;28;94694;-52
2023/10/17 09:49:44;;;;;;;;;;;17.60;59.90;;;;;;10208428;28;93785;-49
2023/10/17 09:54:47;;;;;;;;;;;17.60;59.90;;;;;;10193254;28;94031;-51
2023/10/17 10:00:00;;;;;;;;;;;17.60;59.70;;;;;;10202128;28;95062;-48
2023/10/17 10:05:21;;;;;;;;;;;17.70;59.70;;;;;;10200591;28;96942;-50
2023/10/17 10:10:46;;;;;;;;;;;17.70;59.70;;;;;;10204838;28;93518;-52
2023/10/17 10:15:58;;;;;;;;;;;17.80;59.60;;;;;;10206713;28;93475;-52
2023/10/17 10:21:03;;;;;;;;;;;17.80;59.60;;;;;;10195830;28;92856;-52
2023/10/17 10:26:10;;;;;;;;;;;17.80;59.50;;;;;;10197943;28;93497;-49
2023/10/17 10:31:31;;;;;;;;;;;17.80;59.50;;;;;;10207155;28;94871;-52
2023/10/17 10:36:34;;;;;;;;;;;17.80;59.50;;;;;;10200510;28;94270;-51
2023/10/17 10:41:36;;;;;;;;;;;17.70;59.50;;;;;;10208442;28;93723;-51
2023/10/17 10:46:38;;;;;;;;;;;17.80;59.50;;;;;;10206317;28;95603;-49
2023/10/17 10:51:47;;;;;;;;;;;17.70;59.40;;;;;;10190425;28;94651;-51
2023/10/17 10:56:50;;;;;;;;;;;17.80;59.40;;;;;;10202704;28;96422;-49
2023/10/17 11:01:51;;;;;;;;;;;17.70;59.50;;;;;;10203997;28;94428;-52
2023/10/17 11:06:53;;;;;;;;;;;17.70;59.50;;;;;;10205187;28;93523;-51
2023/10/17 11:11:55;;;;;;;;;;;17.80;59.50;;;;;;10205983;28;94710;-49
2023/10/17 11:16:57;;;;;;;;;;;17.70;59.50;;;;;;10204593;28;96873;-51
2023/10/17 11:22:02;;;;;;;;;;;17.70;59.50;;;;;;10205989;28;94665;-50
2023/10/17 11:27:04;;;;;;;;;;;17.70;59.50;;;;;;10204062;28;93774;-52
2023/10/17 11:32:11;;;;;;;;;;;17.70;59.40;;;;;;10201113;28;92817;-50
2023/10/17 11:37:18;;;;;;;;;;;17.60;59.30;;;;;;10185975;28;94652;-49
2023/10/17 11:42:33;;;;;;;;;;;17.60;59.40;;;;;;10192284;28;94491;-52
2023/10/17 11:47:38;;;;;;;;;;;17.60;59.50;;;;;;10187789;28;96956;-52
2023/10/17 11:52:40;;;;;;;;;;;17.60;59.40;;;;;;10192564;28;94603;-51
2023/10/17 11:57:45;;;;;;;;;;;17.60;59.60;;;;;;10203761;28;93433;-48
2023/10/17 12:02:48;;;;;;;;;;;17.60;59.60;;;;;;10206221;28;94283;-49
2023/10/17 12:07:54;;;;;;;;;;;17.60;59.70;;;;;;10203597;28;96900;-48
2023/10/17 12:12:59;;;;;;;;;;;17.60;59.80;;;;;;10203854;28;93449;-47
2023/10/17 12:18:01;;;;;;;;;;;17.60;59.80;;;;;;10186500;28;93110;-51
2023/10/17 12:23:03;;;;;;;;;;;17.60;59.80;;;;;;10175050;28;92776;-53
2023/10/17 12:28:06;;;;;;;;;;;17.60;59.80;;;;;;10203613;28;94497;-53
2023/10/17 12:33:08;;;;;;;;;;;17.60;59.80;;;;;;10209086;28;94085;-49
2023/10/17 12:38:23;;;;;;;;;;;17.60;59.80;;;;;;10199903;28;96218;-48
2023/10/17 12:43:26;;;;;;;;;;;17.60;60.00;;;;;;10201524;28;93431;-49
2023/10/17 12:48:28;;;;;;;;;;;17.60;59.80;;;;;;10199786;28;94220;-52
2023/10/17 12:53:30;;;;;;;;;;;17.60;59.80;;;;;;10202614;28;93468;-48
2023/10/17 12:58:32;;;;;;;;;;;17.70;59.90;;;;;;10184525;28;93454;-48
2023/10/17 13:03:36;;;;;;;;;;;17.70;59.90;;;;;;10202420;28;95093;-48
2023/10/17 13:08:41;;;;;;;;;;;17.60;59.80;;;;;;10202082;28;95060;-50
2023/10/17 13:13:42;;;;;;;;;;;17.70;59.90;;;;;;10203078;28;93817;-48
2023/10/17 13:18:47;;;;;;;;;;;17.70;59.90;;;;;;10199880;28;94074;-53
2023/10/17 13:23:49;;;;;;;;;;;17.70;59.90;;;;;;10192533;28;93462;-50
2023/10/17 13:28:51;;;;;;;;;;;17.60;59.90;;;;;;10199999;28;98035;-49
2023/10/17 13:33:55;;;;;;;;;;;17.60;59.90;;;;;;10201502;28;94282;-49
2023/10/17 13:38:57;;;;;;;;;;;17.70;60.00;;;;;;10211124;28;94833;-47
2023/10/17 13:44:02;;;;;;;;;;;17.70;60.00;;;;;;10209206;28;94390;-51
2023/10/17 13:49:05;;;;;;;;;;;17.70;60.10;;;;;;10196037;28;94594;-52
2023/10/17 13:54:09;;;;;;;;;;;17.70;60.00;;;;;;10206411;28;92685;-48
2023/10/17 13:59:11;;;;;;;;;;;17.70;60.00;;;;;;10208853;28;94723;-50
2023/10/17 14:04:13;;;;;;;;;;;17.80;60.10;;;;;;10208441;28;92281;-50
2023/10/17 14:09:15;;;;;;;;;;;17.80;60.10;;;;;;10206302;28;93930;-52
2023/10/17 14:14:17;;;;;;;;;;;17.80;60.10;;;;;;10207442;28;94426;-51
2023/10/17 14:19:36;;;;;;;;;;;17.80;60.10;;;;;;10200177;28;95811;-52
2023/10/17 14:29:59;;;;;;;;;;;17.80;60.20;;;;;;10206499;28;94850;-49
2023/10/17 14:35:04;;;;;;;;;;;17.70;61.10;;;;;;10206568;28;93907;-53
2023/10/17 14:40:11;;;;;;;;;;;17.70;60.20;;;;;;10205471;28;93182;-53
2023/10/17 14:45:15;;;;;;;;;;;17.70;60.20;;;;;;10188805;28;96234;-51
2023/10/17 14:50:17;;;;;;;;;;;17.70;60.40;;;;;;10205194;28;94556;-50
2023/10/17 14:55:23;;;;;;;;;;;17.70;60.30;;;;;;10206463;28;93923;-49
2023/10/17 15:00:28;;;;;;;;;;;17.70;60.40;;;;;;10205767;28;94265;-49
2023/10/17 15:05:31;;;;;;;;;;;17.60;60.40;;;;;;10203512;28;93519;-51
2023/10/17 15:10:33;;;;;;;;;;;17.60;60.40;;;;;;10202506;28;97158;-47
2023/10/17 15:15:35;;;;;;;;;;;17.60;60.40;;;;;;10186834;28;94449;-49
2023/10/17 15:20:37;;;;;;;;;;;17.60;60.40;;;;;;10204191;28;93512;-47
2023/10/17 15:25:39;;;;;;;;;;;17.50;60.40;;;;;;10188000;28;94783;-48
2023/10/17 15:30:41;;;;;;;;;;;17.50;60.50;;;;;;10187447;28;96190;-49
2023/10/17 15:35:45;;;;;;;;;;;17.50;60.50;;;;;;10203575;28;93654;-52
2023/10/17 15:40:48;;;;;;;;;;;17.50;60.70;;;;;;10186869;28;94976;-48
2023/10/17 15:45:51;;;;;;;;;;;17.50;60.70;;;;;;10205384;28;92734;-48
2023/10/17 15:50:57;;;;;;;;;;;17.60;60.70;;;;;;10205286;28;93745;-49
2023/10/17 15:56:00;;;;;;;;;;;17.60;60.70;;;;;;10191692;28;94444;-50
2023/10/17 16:01:02;;;;;;;;;;;17.60;60.60;;;;;;10211975;28;98538;-49
2023/10/17 16:06:05;;;;;;;;;;;17.60;60.60;;;;;;10210457;28;93427;-48
2023/10/17 16:11:07;;;;;;;;;;;17.70;60.90;;;;;;10200540;28;94904;-52
2023/10/17 16:16:08;;;;;;;;;;;17.80;61.10;;;;;;10194980;28;93467;-52
2023/10/17 16:21:10;;;;;;;;;;;18.00;61.70;;;;;;10207498;28;94867;-53
2023/10/17 16:26:13;;;;;;;;;;;18.20;62.70;;;;;;10190532;28;94709;-53
2023/10/17 16:31:15;;;;;;;;;;;18.30;62.10;;;;;;10194581;28;94013;-53
2023/10/17 16:36:18;;;;;;;;;;;18.30;61.50;;;;;;10177212;28;94377;-53
2023/10/17 16:41:21;;;;;;;;;;;18.30;62.30;;;;;;10198773;28;94632;-51
2023/10/17 16:46:29;;;;;;;;;;;18.30;61.30;;;;;;10199506;28;93493;-49
2023/10/17 16:51:31;;;;;;;;;;;18.30;61.40;;;;;;10194747;28;97146;-48
2023/10/17 16:56:33;;;;;;;;;;;18.20;61.40;;;;;;10205429;28;95386;-51
2023/10/17 17:01:35;;;;;;;;;;;18.20;61.40;;;;;;10187061;28;94487;-47
2023/10/17 17:06:37;;;;;;;;;;;18.20;61.50;;;;;;10182336;28;94732;-51
2023/10/17 17:11:39;;;;;;;;;;;18.10;61.50;;;;;;10167513;28;94488;-50
2023/10/17 17:16:42;;;;;;;;;;;18.10;61.50;;;;;;10191247;28;94019;-51
2023/10/17 17:21:45;;;;;;;;;;;18.10;61.60;;;;;;10189260;28;95345;-50
2023/10/17 17:26:53;;;;;;;;;;;18.00;61.60;;;;;;10185178;28;93106;-48
2023/10/17 17:31:55;;;;;;;;;;;18.00;61.70;;;;;;10190883;28;95693;-48
2023/10/17 17:36:57;;;;;;;;;;;18.00;61.70;;;;;;10194857;28;94254;-49
2023/10/17 17:41:59;;;;;;;;;;;17.90;61.70;;;;;;10172994;28;96049;-49
2023/10/17 17:47:01;;;;;;;;;;;17.90;61.80;;;;;;10197680;28;93035;-50
2023/10/17 17:52:03;;;;;;;;;;;17.90;61.80;;;;;;10195750;28;93411;-48
2023/10/17 17:57:06;;;;;;;;;;;17.90;61.90;;;;;;10196356;28;93452;-48
2023/10/17 18:02:08;;;;;;;;;;;17.90;61.90;;;;;;10198500;28;94699;-48
2023/10/17 18:07:10;;;;;;;;;;;17.80;61.80;;;;;;10198369;28;94799;-52
2023/10/17 18:12:14;;;;;;;;;;;17.80;61.80;;;;;;10196758;28;94164;-51
2023/10/17 18:17:17;;;;;;;;;;;17.80;61.90;;;;;;10194937;28;94023;-51
2023/10/17 18:22:19;;;;;;;;;;;17.80;61.90;;;;;;10198823;28;93418;-53
2023/10/17 18:27:20;;;;;;;;;;;17.70;61.80;;;;;;10182314;28;93496;-51
2023/10/17 18:32:23;;;;;;;;;;;17.70;61.80;;;;;;10172896;28;95941;-53
2023/10/17 18:37:25;;;;;;;;;;;17.70;61.80;;;;;;10175806;28;93601;-53
2023/10/17 18:42:27;;;;;;;;;;;17.70;61.90;;;;;;10205128;28;95059;-49
2023/10/17 18:47:29;;;;;;;;;;;17.70;61.90;;;;;;10199257;28;94680;-51
2023/10/17 18:52:31;;;;;;;;;;;17.70;61.90;;;;;;10197098;28;94124;-48
2023/10/17 18:57:32;;;;;;;;;;;17.70;61.80;;;;;;10187536;28;93475;-48
2023/10/17 19:02:34;;;;;;;;;;;17.70;61.80;;;;;;10186083;28;94740;-48
2023/10/17 19:07:36;;;;;;;;;;;17.70;61.80;;;;;;10207786;28;94007;-50
2023/10/17 19:12:38;;;;;;;;;;;17.70;61.70;;;;;;10202889;28;94456;-49
2023/10/17 19:17:53;;;;;;;;;;;17.70;61.70;;;;;;10203182;28;96397;-51
2023/10/17 19:22:57;;;;;;;;;;;17.70;61.70;;;;;;10193136;28;96040;-50
2023/10/17 19:27:59;;;;;;;;;;;17.70;61.60;;;;;;10185302;28;95569;-48
2023/10/17 19:33:01;;;;;;;;;;;17.70;61.60;;;;;;10197340;28;94159;-50
2023/10/17 19:38:04;;;;;;;;;;;17.70;61.40;;;;;;10202281;28;94687;-49
2023/10/17 19:43:05;;;;;;;;;;;17.70;61.30;;;;;;10199600;28;93471;-50
2023/10/17 19:48:07;;;;;;;;;;;17.70;61.20;;;;;;10196219;28;94427;-48
2023/10/17 19:53:09;;;;;;;;;;;17.80;61.20;;;;;;10185617;28;94520;-48
2023/10/17 19:58:11;;;;;;;;;;;17.80;61.30;;;;;;10198678;28;92682;-51
2023/10/17 20:03:15;;;;;;;;;;;17.80;61.20;;;;;;10190946;28;93484;-52
2023/10/17 20:08:17;;;;;;;;;;;17.80;61.30;;;;;;10201439;28;94525;-49
2023/10/17 20:13:19;;;;;;;;;;;17.80;61.20;;;;;;10191585;28;97136;-51
2023/10/17 20:18:21;;;;;;;;;;;17.80;61.30;;;;;;10190706;28;93406;-48
2023/10/17 20:23:23;;;;;;;;;;;17.70;61.10;;;;;;10200737;28;93467;-48
2023/10/17 20:28:24;;;;;;;;;;;17.70;61.10;;;;;;10201198;28;94903;-54
2023/10/17 20:33:27;;;;;;;;;;;17.70;61.10;;;;;;10185970;28;94394;-51
2023/10/17 20:38:29;;;;;;;;;;;17.70;61.10;;;;;;10201949;28;94785;-52
2023/10/17 20:43:31;;;;;;;;;;;17.70;61.00;;;;;;10203352;28;94943;-50
2023/10/17 20:48:33;;;;;;;;;;;17.60;60.90;;;;;;10200422;28;93364;-52
2023/10/17 20:53:34;;;;;;;;;;;17.60;60.80;;;;;;10202028;28;95343;-49
2023/10/17 20:58:36;;;;;;;;;;;17.60;60.80;;;;;;10201194;28;93383;-53
2023/10/17 21:03:38;;;;;;;;;;;17.60;60.80;;;;;;10199341;28;97232;-48
2023/10/17 21:08:40;;;;;;;;;;;17.50;60.60;;;;;;10184522;28;93837;-49
2023/10/17 21:13:42;;;;;;;;;;;17.50;60.60;;;;;;10190827;28;94491;-50
2023/10/17 21:18:47;;;;;;;;;;;17.50;60.50;;;;;;10205962;28;94610;-50
2023/10/17 21:23:50;;;;;;;;;;;17.50;60.50;;;;;;10152175;28;93632;-51
2023/10/17 21:28:52;;;;;;;;;;;17.50;60.50;;;;;;10202055;28;93978;-50
2023/10/17 21:33:53;;;;;;;;;;;17.50;60.50;;;;;;10180611;28;94462;-49
2023/10/17 21:38:55;;;;;;;;;;;17.40;60.40;;;;;;10202688;28;93883;-51
2023/10/17 21:43:57;;;;;;;;;;;17.40;60.40;;;;;;10202062;28;94471;-49
2023/10/17 21:48:59;;;;;;;;;;;17.40;60.30;;;;;;10201154;28;93458;-51
2023/10/17 21:54:01;;;;;;;;;;;17.40;60.30;;;;;;10200560;28;96646;-51
2023/10/17 21:59:03;;;;;;;;;;;17.40;60.20;;;;;;10202132;28;94589;-52
2023/10/17 22:04:08;;;;;;;;;;;17.40;60.20;;;;;;10207145;28;94696;-50
2023/10/17 22:09:11;;;;;;;;;;;17.30;60.20;;;;;;10189302;28;94786;-50
2023/10/17 22:14:13;;;;;;;;;;;17.30;60.20;;;;;;10203925;28;93527;-51
2023/10/17 22:19:18;;;;;;;;;;;17.30;60.10;;;;;;10206494;28;114002;-53
2023/10/17 22:24:20;;;;;;;;;;;17.30;60.20;;;;;;10197389;28;94324;-53
2023/10/17 22:29:22;;;;;;;;;;;17.30;60.00;;;;;;10190809;28;93708;-53
2023/10/17 22:34:23;;;;;;;;;;;17.30;59.40;;;;;;10206819;28;94411;-48
2023/10/17 22:39:27;;;;;;;;;;;17.30;59.00;;;;;;10206043;28;93482;-48
2023/10/17 22:44:29;;;;;;;;;;;17.30;58.60;;;;;;10203581;28;97945;-48
2023/10/17 22:49:31;;;;;;;;;;;17.30;58.30;;;;;;10206736;28;94595;-53
2023/10/17 22:54:33;;;;;;;;;;;17.30;58.00;;;;;;10187892;28;95169;-50
2023/10/17 22:59:35;;;;;;;;;;;17.40;57.90;;;;;;10206453;28;92607;-48
2023/10/17 23:04:37;;;;;;;;;;;17.40;57.50;;;;;;10206704;28;94717;-53
2023/10/17 23:09:39;;;;;;;;;;;17.40;57.30;;;;;;10209663;28;96053;-49
2023/10/17 23:14:41;;;;;;;;;;;17.40;57.50;;;;;;10204901;28;95148;-53
2023/10/17 23:19:43;;;;;;;;;;;17.30;57.90;;;;;;10206102;28;93669;-48
2023/10/17 23:24:45;;;;;;;;;;;17.30;57.90;;;;;;10206787;28;93020;-49
2023/10/17 23:29:48;;;;;;;;;;;17.30;57.70;;;;;;10207106;28;94738;-48
2023/10/17 23:34:50;;;;;;;;;;;17.30;57.40;;;;;;10203264;28;96808;-48
2023/10/17 23:39:52;;;;;;;;;;;17.30;57.10;;;;;;10203895;28;94475;-53
2023/10/17 23:44:53;;;;;;;;;;;17.40;56.80;;;;;;10186043;28;94467;-52
2023/10/17 23:49:55;;;;;;;;;;;17.30;56.60;;;;;;10188242;28;94745;-48
2023/10/17 23:54:58;;;;;;;;;;;17.30;56.40;;;;;;10209665;28;94428;-48
2023/10/17 23:59:59;;;;;;;;;;;17.30;56.20;;;;;;10203044;28;95044;-49
